Time;durP1;ratioP1;P1;durP2;ratioP2;P2;SDS_P1;SDS_P2;PMS_P1;PMS_P2;Temp;Humidity;BMP_temperature;BMP_pressure;BME280_temperature;BME280_humidity;BME280_pressure;Samples;Min_cycle;Max_cycle;Signal;HPM_P1;HPM_P2
2022/08/11 00:01:05;;;;;;;;;;;19.70;76.80;;;;;;5028293;28;19926;-68
2022/08/11 00:03:33;;;;;;;;;;;19.80;77.10;;;;;;5019950;28;20602;-68
2022/08/11 00:05:59;;;;;;;;;;;19.80;77.00;;;;;;5019985;28;19929;-68
2022/08/11 00:08:30;;;;;;;;;;;19.80;78.50;;;;;;5025895;28;19925;-68
2022/08/11 00:10:58;;;;;;;;;;;19.80;79.40;;;;;;5028380;28;19929;-68
2022/08/11 00:13:31;;;;;;;;;;;19.70;79.70;;;;;;5027576;28;19925;-68
2022/08/11 00:15:58;;;;;;;;;;;19.70;81.20;;;;;;5028399;28;19932;-68
2022/08/11 00:18:25;;;;;;;;;;;19.70;82.60;;;;;;5019261;28;20033;-67
2022/08/11 00:20:57;;;;;;;;;;;19.60;83.60;;;;;;5023612;28;19948;-68
2022/08/11 00:23:24;;;;;;;;;;;19.60;83.40;;;;;;5029758;28;20016;-67
2022/08/11 00:25:53;;;;;;;;;;;19.60;83.20;;;;;;5024392;28;20139;-68
2022/08/11 00:28:23;;;;;;;;;;;19.70;82.90;;;;;;5030585;28;19930;-68
2022/08/11 00:30:51;;;;;;;;;;;19.80;83.00;;;;;;5023964;28;19925;-69
2022/08/11 00:33:18;;;;;;;;;;;19.70;84.50;;;;;;5017827;28;19932;-68
2022/08/11 00:35:45;;;;;;;;;;;19.50;86.20;;;;;;5025668;28;19936;-68
2022/08/11 00:38:12;;;;;;;;;;;19.40;88.10;;;;;;5016654;28;20025;-68
2022/08/11 00:40:45;;;;;;;;;;;19.30;89.40;;;;;;5026043;28;19925;-68
2022/08/11 00:43:20;;;;;;;;;;;19.20;90.10;;;;;;5023226;28;20025;-69
2022/08/11 00:46:02;;;;;;;;;;;19.20;90.30;;;;;;5027500;28;19952;-68
2022/08/11 00:48:33;;;;;;;;;;;19.20;90.30;;;;;;5027327;28;20005;-68
2022/08/11 00:51:05;;;;;;;;;;;19.30;90.40;;;;;;5026437;28;19929;-67
2022/08/11 00:53:45;;;;;;;;;;;19.30;90.50;;;;;;5026260;28;19925;-67
2022/08/11 00:56:37;;;;;;;;;;;19.30;90.40;;;;;;5017987;28;20384;-67
2022/08/11 00:59:22;;;;;;;;;;;19.30;90.50;;;;;;5020879;28;19934;-67
2022/08/11 01:01:56;;;;;;;;;;;19.20;91.80;;;;;;5015007;28;20324;-68
2022/08/11 01:04:41;;;;;;;;;;;19.10;92.40;;;;;;5025873;28;20399;-67
2022/08/11 01:07:25;;;;;;;;;;;18.90;92.70;;;;;;5025638;28;19935;-68
2022/08/11 01:10:08;;;;;;;;;;;18.90;93.10;;;;;;5023287;28;20303;-67
2022/08/11 01:12:49;;;;;;;;;;;18.90;93.60;;;;;;5020267;28;19932;-67
2022/08/11 01:15:39;;;;;;;;;;;18.90;93.90;;;;;;5022226;28;20303;-67
2022/08/11 01:18:20;;;;;;;;;;;18.80;94.40;;;;;;5025057;28;19925;-67
2022/08/11 01:20:59;;;;;;;;;;;18.60;95.30;;;;;;5014110;28;20004;-67
2022/08/11 01:23:50;;;;;;;;;;;18.60;95.60;;;;;;5029120;28;19925;-67
2022/08/11 01:26:40;;;;;;;;;;;18.60;95.50;;;;;;5027344;28;20015;-67
2022/08/11 01:29:22;;;;;;;;;;;18.60;95.60;;;;;;5012753;28;19929;-68
2022/08/11 01:32:10;;;;;;;;;;;18.60;96.40;;;;;;5027955;28;20428;-68
2022/08/11 01:34:54;;;;;;;;;;;18.50;96.80;;;;;;5024315;28;20012;-68
2022/08/11 01:37:31;;;;;;;;;;;18.50;97.10;;;;;;5022074;28;19925;-68
2022/08/11 01:40:18;;;;;;;;;;;18.40;97.70;;;;;;5025294;28;19926;-67
2022/08/11 01:45:55;;;;;;;;;;;18.20;98.80;;;;;;5028290;28;19932;-68
2022/08/11 01:48:29;;;;;;;;;;;18.10;98.80;;;;;;5014862;28;20364;-67
2022/08/11 01:51:10;;;;;;;;;;;18.10;99.10;;;;;;5021869;28;20040;-66
2022/08/11 01:53:45;;;;;;;;;;;18.10;99.20;;;;;;5015258;28;20026;-68
2022/08/11 01:56:21;;;;;;;;;;;18.20;99.10;;;;;;5019575;28;19929;-68
2022/08/11 01:58:49;;;;;;;;;;;18.20;99.00;;;;;;5017586;28;20023;-66
2022/08/11 02:01:25;;;;;;;;;;;18.30;98.70;;;;;;5019538;28;19929;-66
2022/08/11 02:03:55;;;;;;;;;;;18.30;98.60;;;;;;5025527;28;19933;-67
2022/08/11 02:09:18;;;;;;;;;;;18.40;98.20;;;;;;5032910;28;19936;-67
2022/08/11 02:11:44;;;;;;;;;;;18.30;98.50;;;;;;5026896;28;19925;-66
2022/08/11 02:14:14;;;;;;;;;;;18.20;99.00;;;;;;5030579;28;20422;-67
2022/08/11 02:16:59;;;;;;;;;;;18.10;99.10;;;;;;5019880;28;20011;-66
2022/08/11 02:25:21;;;;;;;;;;;18.00;99.90;;;;;;5029122;28;19933;-67
2022/08/11 02:27:51;;;;;;;;;;;17.90;99.90;;;;;;5027445;28;20023;-66
2022/08/11 02:30:20;;;;;;;;;;;17.90;99.90;;;;;;5022159;28;20009;-66
2022/08/11 02:35:48;;;;;;;;;;;17.80;99.90;;;;;;5030740;28;19952;-66
2022/08/11 02:38:17;;;;;;;;;;;17.80;99.90;;;;;;5029827;28;19925;-66
2022/08/11 02:40:49;;;;;;;;;;;17.70;99.90;;;;;;5026386;28;19929;-67
2022/08/11 02:43:23;;;;;;;;;;;17.70;99.90;;;;;;5030131;28;19925;-66
2022/08/11 02:45:54;;;;;;;;;;;17.60;99.90;;;;;;5029877;28;20027;-66
2022/08/11 02:51:17;;;;;;;;;;;17.60;99.90;;;;;;5026497;28;19944;-65
2022/08/11 02:53:47;;;;;;;;;;;17.60;99.90;;;;;;5028097;28;20008;-65
2022/08/11 02:56:21;;;;;;;;;;;17.60;99.90;;;;;;5028130;28;19925;-65
2022/08/11 02:59:49;;;;;;;;;;;17.50;99.90;;;;;;5022493;28;20383;-65
2022/08/11 03:01:43;;;;;;;;;;;17.50;99.90;;;;;;5025065;28;20644;-66
2022/08/11 03:04:15;;;;;;;;;;;17.50;99.90;;;;;;5024361;28;19933;-65
2022/08/11 03:06:48;;;;;;;;;;;17.50;99.90;;;;;;5027878;28;19925;-65
2022/08/11 03:09:18;;;;;;;;;;;17.60;99.90;;;;;;5023854;28;20403;-65
2022/08/11 03:17:34;;;;;;;;;;;17.60;99.90;;;;;;5020327;28;19994;-65
2022/08/11 03:20:15;;;;;;;;;;;17.50;99.90;;;;;;5028775;28;20023;-66
2022/08/11 03:22:49;;;;;;;;;;;17.50;99.90;;;;;;5022771;28;19926;-66
2022/08/11 03:25:29;;;;;;;;;;;17.30;99.90;;;;;;5031596;28;20291;-65
2022/08/11 03:28:02;;;;;;;;;;;17.20;99.90;;;;;;5025535;28;19924;-66
2022/08/11 03:30:34;;;;;;;;;;;17.10;99.90;;;;;;5023808;28;19931;-66
2022/08/11 03:36:01;;;;;;;;;;;17.00;99.90;;;;;;5016948;28;19939;-65
2022/08/11 03:38:34;;;;;;;;;;;16.90;99.90;;;;;;5025252;28;19933;-66
2022/08/11 03:44:10;;;;;;;;;;;16.80;99.90;;;;;;5020194;28;20030;-66
2022/08/11 03:46:46;;;;;;;;;;;16.80;99.90;;;;;;5030191;28;19932;-65
2022/08/11 03:49:22;;;;;;;;;;;16.80;99.90;;;;;;5027443;28;19940;-65
2022/08/11 03:51:53;;;;;;;;;;;16.90;99.90;;;;;;5026737;28;19931;-65
2022/08/11 03:54:27;;;;;;;;;;;16.90;99.90;;;;;;5024625;28;19932;-65
2022/08/11 03:57:15;;;;;;;;;;;16.90;99.90;;;;;;5014370;28;20334;-65
2022/08/11 03:59:58;;;;;;;;;;;16.90;99.90;;;;;;5024140;28;19932;-65
2022/08/11 04:02:35;;;;;;;;;;;16.90;99.90;;;;;;5022125;28;19926;-64
2022/08/11 04:05:32;;;;;;;;;;;16.90;99.90;;;;;;5015794;28;20036;-65
2022/08/11 04:08:13;;;;;;;;;;;16.90;99.90;;;;;;5021275;28;20449;-65
2022/08/11 04:10:58;;;;;;;;;;;16.90;99.90;;;;;;5025650;28;20011;-65
2022/08/11 04:13:35;;;;;;;;;;;16.80;99.90;;;;;;5027727;28;20008;-65
2022/08/11 04:16:09;;;;;;;;;;;16.80;99.90;;;;;;5023999;28;20015;-65
2022/08/11 04:18:47;;;;;;;;;;;16.80;99.90;;;;;;5026930;28;19925;-65
2022/08/11 04:21:21;;;;;;;;;;;16.80;99.90;;;;;;5024002;28;19996;-65
2022/08/11 04:24:03;;;;;;;;;;;16.70;99.90;;;;;;5025830;28;19929;-65
2022/08/11 04:26:48;;;;;;;;;;;16.60;99.90;;;;;;5023174;28;19925;-65
2022/08/11 04:29:24;;;;;;;;;;;16.60;99.90;;;;;;5027730;28;19925;-65
2022/08/11 04:32:04;;;;;;;;;;;16.70;99.90;;;;;;5018238;28;19925;-65
2022/08/11 04:34:51;;;;;;;;;;;16.70;99.90;;;;;;5021178;28;19929;-66
2022/08/11 04:37:33;;;;;;;;;;;16.70;99.90;;;;;;5016516;28;19932;-65
2022/08/11 04:40:06;;;;;;;;;;;16.60;99.90;;;;;;5012840;28;19929;-65
2022/08/11 04:45:40;;;;;;;;;;;16.60;99.90;;;;;;5019619;28;19920;-65
2022/08/11 05:02:51;;;;;;;;;;;16.90;99.90;;;;;;5024021;28;20316;-66
2022/08/11 05:05:31;;;;;;;;;;;16.90;99.90;;;;;;5025369;28;20501;-65
2022/08/11 05:08:21;;;;;;;;;;;16.90;99.90;;;;;;5017465;28;20012;-66
2022/08/11 05:10:53;;;;;;;;;;;17.00;99.90;;;;;;5021770;28;20060;-66
2022/08/11 05:35:35;;;;;;;;;;;17.50;99.90;;;;;;5026621;28;20455;-68
2022/08/11 05:57:25;;;;;;;;;;;18.20;99.90;;;;;;5025761;28;20319;-67
2022/08/11 05:59:58;;;;;;;;;;;18.30;99.90;;;;;;5025054;28;19933;-67
2022/08/11 06:02:25;;;;;;;;;;;18.40;99.90;;;;;;5020621;28;19926;-67
2022/08/11 06:04:55;;;;;;;;;;;18.50;99.90;;;;;;5024271;28;20277;-67
2022/08/11 06:07:26;;;;;;;;;;;18.50;99.90;;;;;;5033955;28;19925;-67
2022/08/11 06:09:54;;;;;;;;;;;18.60;99.90;;;;;;5031491;28;20407;-67
2022/08/11 06:12:23;;;;;;;;;;;18.70;99.90;;;;;;5028780;28;20298;-67
2022/08/11 06:14:50;;;;;;;;;;;18.80;99.90;;;;;;5028360;28;20004;-67
2022/08/11 06:17:22;;;;;;;;;;;18.90;99.90;;;;;;5031601;28;20016;-66
2022/08/11 06:19:50;;;;;;;;;;;19.10;99.90;;;;;;5029928;28;20016;-67
2022/08/11 06:22:20;;;;;;;;;;;19.20;99.90;;;;;;5030264;28;20566;-66
2022/08/11 06:24:51;;;;;;;;;;;19.30;99.90;;;;;;5030611;28;19964;-67
2022/08/11 06:27:21;;;;;;;;;;;19.40;99.90;;;;;;5031932;28;19933;-67
2022/08/11 06:29:49;;;;;;;;;;;19.40;99.90;;;;;;5024271;28;20012;-69
2022/08/11 06:32:16;;;;;;;;;;;19.50;99.90;;;;;;5027406;28;20024;-70
2022/08/11 06:34:55;;;;;;;;;;;19.60;99.90;;;;;;5017803;28;19932;-67
2022/08/11 06:37:23;;;;;;;;;;;19.80;99.90;;;;;;5020832;28;20026;-69
2022/08/11 06:40:01;;;;;;;;;;;19.80;99.90;;;;;;5023786;28;19925;-67
2022/08/11 06:42:46;;;;;;;;;;;19.90;99.90;;;;;;5020236;28;20008;-67
2022/08/11 06:45:19;;;;;;;;;;;19.90;99.90;;;;;;5022915;28;20039;-67
2022/08/11 06:47:47;;;;;;;;;;;20.00;99.90;;;;;;5025543;28;19944;-69
2022/08/11 06:53:05;;;;;;;;;;;20.30;99.90;;;;;;5019264;28;20414;-67
2022/08/11 07:01:07;;;;;;;;;;;20.60;99.90;;;;;;5021139;28;20311;-68
2022/08/11 07:03:37;;;;;;;;;;;20.80;99.90;;;;;;5016717;28;19935;-68
2022/08/11 07:06:13;;;;;;;;;;;21.10;99.90;;;;;;5016466;28;20028;-67
2022/08/11 07:17:16;;;;;;;;;;;28.50;63.90;;;;;;5023473;28;19940;-67
2022/08/11 07:30:48;;;;;;;;;;;29.60;31.20;;;;;;5016028;28;19979;-67
2022/08/11 07:33:19;;;;;;;;;;;31.10;28.50;;;;;;5024307;28;20376;-66
2022/08/11 07:35:49;;;;;;;;;;;30.70;27.30;;;;;;5023805;28;20355;-67
2022/08/11 07:38:17;;;;;;;;;;;31.10;27.50;;;;;;5012744;28;19925;-67
2022/08/11 07:40:45;;;;;;;;;;;31.20;25.40;;;;;;5026491;28;19951;-67
2022/08/11 07:43:12;;;;;;;;;;;32.10;21.80;;;;;;5022453;28;20016;-68
2022/08/11 07:53:56;;;;;;;;;;;30.20;20.80;;;;;;5027020;28;19978;-63
2022/08/11 07:56:23;;;;;;;;;;;31.70;20.80;;;;;;5026273;28;20399;-67
2022/08/11 08:18:04;;;;;;;;;;;;;;;;;;5023851;28;20015;-65
2022/08/11 08:20:35;;;;;;;;;;;33.40;11.90;;;;;;5016934;28;19936;-65
2022/08/11 08:23:10;;;;;;;;;;;32.90;12.40;;;;;;5023350;28;19925;-66
2022/08/11 08:25:39;;;;;;;;;;;32.00;12.80;;;;;;5022577;28;20012;-66
2022/08/11 08:28:06;;;;;;;;;;;31.20;13.20;;;;;;5025148;28;19931;-66
2022/08/11 08:30:49;;;;;;;;;;;29.90;14.20;;;;;;5026109;28;19993;-66
2022/08/11 08:33:19;;;;;;;;;;;31.00;13.70;;;;;;5019101;28;20023;-64
2022/08/11 08:35:47;;;;;;;;;;;31.00;14.30;;;;;;5022132;28;20008;-66
2022/08/11 08:38:14;;;;;;;;;;;30.90;13.80;;;;;;5024225;28;20067;-66
2022/08/11 08:40:42;;;;;;;;;;;32.50;12.70;;;;;;5023685;28;20019;-66
2022/08/11 08:43:13;;;;;;;;;;;31.10;13.70;;;;;;5026304;28;19932;-65
2022/08/11 08:45:41;;;;;;;;;;;31.40;14.30;;;;;;5022578;28;19929;-66
2022/08/11 08:48:10;;;;;;;;;;;31.50;14.10;;;;;;5024024;28;20364;-67
2022/08/11 08:53:31;;;;;;;;;;;30.80;14.60;;;;;;5027336;28;20426;-67
2022/08/11 08:55:59;;;;;;;;;;;30.90;13.80;;;;;;5024685;28;19936;-66
2022/08/11 08:58:26;;;;;;;;;;;30.20;13.90;;;;;;5026312;28;20388;-68
2022/08/11 09:00:54;;;;;;;;;;;30.70;13.70;;;;;;5022271;28;19925;-68
2022/08/11 09:03:21;;;;;;;;;;;31.70;12.70;;;;;;5027845;28;20027;-67
2022/08/11 09:05:48;;;;;;;;;;;32.30;10.50;;;;;;5026654;28;20059;-67
2022/08/11 09:08:17;;;;;;;;;;;32.10;11.70;;;;;;5022113;28;20505;-67
2022/08/11 09:10:46;;;;;;;;;;;33.90;9.60;;;;;;5026665;28;19944;-67
2022/08/11 09:13:14;;;;;;;;;;;30.90;11.90;;;;;;5021314;28;19932;-67
2022/08/11 09:15:41;;;;;;;;;;;31.50;11.80;;;;;;5014674;28;22273;-61
2022/08/11 09:18:09;;;;;;;;;;;31.50;12.10;;;;;;5014862;28;20566;-67
2022/08/11 09:20:38;;;;;;;;;;;31.30;12.50;;;;;;5018911;28;20299;-67
2022/08/11 09:28:37;;;;;;;;;;;31.10;11.80;;;;;;5014176;28;19936;-67
2022/08/11 09:31:06;;;;;;;;;;;31.60;11.10;;;;;;5017956;28;20407;-67
2022/08/11 09:33:34;;;;;;;;;;;31.90;10.70;;;;;;5024549;28;19929;-67
2022/08/11 09:40:27;;;;;;;;;;;31.30;11.80;;;;;;5022922;28;19926;-68
2022/08/11 09:41:36;;;;;;;;;;;31.00;11.50;;;;;;5014296;28;19975;-68
2022/08/11 09:46:49;;;;;;;;;;;30.80;12.00;;;;;;5026152;28;19951;-66
2022/08/11 09:49:19;;;;;;;;;;;31.00;10.70;;;;;;5019373;28;19933;-67
2022/08/11 09:51:47;;;;;;;;;;;29.90;11.50;;;;;;5016873;28;19931;-68
2022/08/11 09:54:15;;;;;;;;;;;30.00;12.00;;;;;;5022404;28;21377;-68
2022/08/11 09:59:28;;;;;;;;;;;30.00;12.10;;;;;;5013230;28;20002;-66
2022/08/11 10:01:58;;;;;;;;;;;30.40;11.30;;;;;;5019212;28;19939;-66
2022/08/11 10:04:31;;;;;;;;;;;31.60;10.10;;;;;;5024286;28;19929;-66
2022/08/11 10:07:00;;;;;;;;;;;30.60;10.10;;;;;;5022510;28;19926;-67
2022/08/11 10:09:28;;;;;;;;;;;30.10;10.70;;;;;;5023432;28;19932;-68
2022/08/11 10:11:58;;;;;;;;;;;29.70;11.20;;;;;;5026440;28;19925;-67
2022/08/11 10:17:10;;;;;;;;;;;29.10;12.50;;;;;;5018803;28;19939;-67
2022/08/11 10:19:37;;;;;;;;;;;29.10;13.10;;;;;;5020165;28;20392;-67
2022/08/11 10:27:34;;;;;;;;;;;28.80;12.20;;;;;;5020205;28;20434;-67
2022/08/11 10:35:31;;;;;;;;;;;29.10;12.70;;;;;;5029050;28;19945;-67
2022/08/11 10:37:59;;;;;;;;;;;28.90;11.90;;;;;;5026064;28;20048;-67
2022/08/11 10:40:26;;;;;;;;;;;28.70;12.40;;;;;;5018777;28;19932;-67
2022/08/11 10:43:01;;;;;;;;;;;28.90;12.50;;;;;;5021573;28;19936;-67
2022/08/11 10:48:14;;;;;;;;;;;29.00;12.40;;;;;;5012557;28;19979;-67
2022/08/11 10:59:00;;;;;;;;;;;28.90;12.10;;;;;;5019955;28;19940;-67
2022/08/11 11:01:29;;;;;;;;;;;29.20;11.40;;;;;;5016017;28;19952;-67
2022/08/11 11:03:58;;;;;;;;;;;29.30;11.20;;;;;;5018601;28;19944;-66
2022/08/11 11:06:28;;;;;;;;;;;29.20;11.40;;;;;;5018387;28;20465;-68
2022/08/11 11:08:56;;;;;;;;;;;29.10;10.00;;;;;;5022172;28;20019;-67
2022/08/11 11:17:54;;;;;;;;;;;29.20;10.40;;;;;;5030166;28;19928;-67
2022/08/11 11:19:45;;;;;;;;;;;29.90;9.10;;;;;;5026425;28;19978;-67
2022/08/11 11:25:00;;;;;;;;;;;29.80;8.50;;;;;;5023040;28;20074;-67
2022/08/11 11:27:32;;;;;;;;;;;30.00;8.70;;;;;;5024255;28;19960;-68
2022/08/11 11:30:03;;;;;;;;;;;30.20;9.60;;;;;;5019900;28;20334;-67
2022/08/11 11:32:32;;;;;;;;;;;30.30;9.20;;;;;;5029497;28;20403;-67
2022/08/11 11:35:14;;;;;;;;;;;30.20;8.60;;;;;;5022496;28;19935;-67
2022/08/11 11:37:41;;;;;;;;;;;30.00;8.30;;;;;;5028799;28;19926;-67
2022/08/11 11:40:10;;;;;;;;;;;30.20;8.30;;;;;;5025857;28;20319;-67
2022/08/11 11:42:37;;;;;;;;;;;30.30;8.10;;;;;;5027529;28;20015;-67
2022/08/11 11:45:06;;;;;;;;;;;30.10;7.40;;;;;;5022023;28;19933;-66
2022/08/11 11:47:34;;;;;;;;;;;30.20;8.20;;;;;;5020959;28;19968;-65
2022/08/11 11:50:02;;;;;;;;;;;30.20;7.50;;;;;;5014218;28;19932;-67
2022/08/11 11:52:29;;;;;;;;;;;30.20;7.80;;;;;;5016893;28;19926;-66
2022/08/11 11:54:56;;;;;;;;;;;30.10;8.00;;;;;;5015789;28;20422;-66
2022/08/11 12:02:55;;;;;;;;;;;30.20;7.00;;;;;;5014812;28;20046;-68
2022/08/11 12:05:22;;;;;;;;;;;30.20;7.50;;;;;;5014200;28;19939;-67
2022/08/11 12:10:33;;;;;;;;;;;30.20;6.40;;;;;;5019950;28;19931;-67
2022/08/11 12:15:47;;;;;;;;;;;30.60;6.80;;;;;;5024685;28;19952;-68
2022/08/11 12:18:14;;;;;;;;;;;31.10;7.00;;;;;;5020344;28;19925;-67
2022/08/11 12:20:41;;;;;;;;;;;31.10;6.60;;;;;;5021686;28;19925;-66
2022/08/11 12:28:38;;;;;;;;;;;31.20;5.70;;;;;;5024299;28;19974;-68
2022/08/11 12:31:08;;;;;;;;;;;31.10;6.40;;;;;;5018677;28;19940;-67
2022/08/11 12:33:35;;;;;;;;;;;31.20;6.90;;;;;;5017767;28;19936;-67
2022/08/11 12:36:03;;;;;;;;;;;31.00;7.00;;;;;;5021944;28;19947;-68
2022/08/11 12:38:30;;;;;;;;;;;30.70;7.20;;;;;;5019894;28;19940;-68
2022/08/11 12:46:32;;;;;;;;;;;30.80;6.40;;;;;;5024837;28;20032;-67
2022/08/11 12:51:58;;;;;;;;;;;30.70;6.10;;;;;;5018059;28;20411;-67
2022/08/11 12:54:28;;;;;;;;;;;31.30;4.70;;;;;;5015427;28;19931;-66
2022/08/11 13:05:14;;;;;;;;;;;31.60;3.90;;;;;;5018199;28;19931;-67
2022/08/11 13:07:42;;;;;;;;;;;31.50;3.40;;;;;;5024725;28;20004;-67
2022/08/11 13:10:10;;;;;;;;;;;31.20;4.00;;;;;;5026572;28;20140;-67
2022/08/11 13:12:49;;;;;;;;;;;31.60;4.10;;;;;;5023551;28;20341;-67
2022/08/11 13:15:17;;;;;;;;;;;31.50;3.40;;;;;;5024610;28;19926;-67
2022/08/11 13:17:46;;;;;;;;;;;31.40;2.90;;;;;;5021280;28;20213;-66
2022/08/11 13:20:13;;;;;;;;;;;31.40;3.40;;;;;;5018848;28;20401;-65
2022/08/11 13:22:44;;;;;;;;;;;31.20;2.40;;;;;;5029006;28;19995;-65
2022/08/11 13:25:12;;;;;;;;;;;31.60;2.40;;;;;;5021027;28;19933;-66
2022/08/11 13:27:39;;;;;;;;;;;32.00;1.40;;;;;;5018453;28;19972;-66
2022/08/11 13:32:52;;;;;;;;;;;31.50;1.50;;;;;;5024612;28;20252;-66
2022/08/11 13:35:20;;;;;;;;;;;31.60;1.80;;;;;;5017208;28;20063;-67
2022/08/11 13:37:47;;;;;;;;;;;31.60;1.60;;;;;;5019523;28;19929;-66
2022/08/11 13:40:16;;;;;;;;;;;31.70;1.30;;;;;;5017950;28;20145;-65
2022/08/11 13:42:44;;;;;;;;;;;31.90;1.00;;;;;;5019668;28;19987;-66
2022/08/11 13:45:11;;;;;;;;;;;32.00;1.00;;;;;;5022411;28;19947;-66
2022/08/11 13:47:38;;;;;;;;;;;32.20;1.00;;;;;;5019520;28;20020;-68
2022/08/11 13:50:07;;;;;;;;;;;32.20;1.00;;;;;;5018057;28;20421;-66
2022/08/11 13:52:35;;;;;;;;;;;32.00;1.00;;;;;;5015900;28;20370;-66
2022/08/11 13:55:02;;;;;;;;;;;32.00;1.00;;;;;;5024017;28;19925;-66
2022/08/11 13:57:32;;;;;;;;;;;32.00;1.00;;;;;;5017223;28;19932;-66
2022/08/11 14:00:08;;;;;;;;;;;31.90;1.00;;;;;;5018586;28;19925;-70
2022/08/11 14:02:37;;;;;;;;;;;31.80;1.00;;;;;;5020738;28;19968;-70
2022/08/11 14:05:08;;;;;;;;;;;31.70;1.00;;;;;;5022494;28;19929;-70
2022/08/11 14:07:38;;;;;;;;;;;31.80;1.00;;;;;;5029922;28;19925;-67
2022/08/11 14:10:06;;;;;;;;;;;32.00;1.00;;;;;;5030092;28;20006;-67
2022/08/11 14:15:23;;;;;;;;;;;32.50;1.00;;;;;;5024641;28;19932;-67
2022/08/11 14:17:52;;;;;;;;;;;32.20;1.00;;;;;;5029012;28;19929;-68
2022/08/11 14:20:20;;;;;;;;;;;32.00;1.00;;;;;;5023190;28;20004;-67
2022/08/11 14:22:48;;;;;;;;;;;32.10;1.00;;;;;;5028192;28;20021;-69
2022/08/11 14:25:15;;;;;;;;;;;32.40;1.00;;;;;;5026654;28;19925;-67
2022/08/11 14:27:44;;;;;;;;;;;32.70;1.00;;;;;;5031298;28;19951;-65
2022/08/11 14:30:53;;;;;;;;;;;32.20;1.00;;;;;;5029257;28;19964;-67
2022/08/11 14:32:59;;;;;;;;;;;32.30;1.00;;;;;;5023750;28;19929;-66
2022/08/11 14:35:27;;;;;;;;;;;32.20;1.00;;;;;;5026235;28;20031;-69
2022/08/11 14:37:56;;;;;;;;;;;32.00;1.00;;;;;;5023596;28;20063;-68
2022/08/11 14:48:37;;;;;;;;;;;31.80;1.00;;;;;;5021995;28;19939;-66
2022/08/11 14:51:04;;;;;;;;;;;32.00;1.00;;;;;;5026573;28;19936;-67
2022/08/11 14:53:33;;;;;;;;;;;32.10;1.00;;;;;;5023793;28;19925;-67
2022/08/11 14:58:44;;;;;;;;;;;31.50;1.00;;;;;;5028495;28;19939;-67
2022/08/11 15:03:52;;;;;;;;;;;31.90;1.00;;;;;;5022100;28;20482;-68
2022/08/11 15:06:19;;;;;;;;;;;31.80;1.00;;;;;;5023467;28;20031;-68
2022/08/11 15:08:56;;;;;;;;;;;32.00;1.00;;;;;;5022855;28;20945;-67
2022/08/11 15:14:08;;;;;;;;;;;32.20;1.00;;;;;;5026543;28;19975;-65
2022/08/11 15:19:32;;;;;;;;;;;32.10;1.00;;;;;;4999216;28;19925;-67
2022/08/11 15:24:44;;;;;;;;;;;31.60;1.00;;;;;;5024802;28;19931;-67
2022/08/11 15:38:14;;;;;;;;;;;31.60;1.00;;;;;;5020228;28;20007;-67
2022/08/11 15:46:14;;;;;;;;;;;32.10;1.00;;;;;;5026491;28;19936;-68
2022/08/11 15:48:43;;;;;;;;;;;31.80;1.00;;;;;;5024385;28;19925;-69
2022/08/11 15:51:11;;;;;;;;;;;31.90;1.00;;;;;;5025718;28;20012;-67
2022/08/11 15:53:42;;;;;;;;;;;31.60;1.00;;;;;;5025741;28;19952;-68
2022/08/11 15:56:11;;;;;;;;;;;31.60;1.00;;;;;;5027325;28;20019;-68
2022/08/11 16:04:14;;;;;;;;;;;31.50;1.00;;;;;;5024658;28;20354;-69
2022/08/11 16:06:47;;;;;;;;;;;31.70;1.00;;;;;;5025693;28;19948;-69
2022/08/11 16:09:15;;;;;;;;;;;31.50;1.00;;;;;;5021035;28;19933;-69
2022/08/11 16:11:44;;;;;;;;;;;31.20;1.00;;;;;;5020680;28;19967;-68
2022/08/11 16:16:57;;;;;;;;;;;31.30;1.00;;;;;;5017664;28;20312;-68
2022/08/11 16:19:26;;;;;;;;;;;31.40;1.00;;;;;;5016913;28;19929;-68
2022/08/11 16:21:55;;;;;;;;;;;31.30;1.00;;;;;;5019455;28;20418;-67
2022/08/11 16:24:22;;;;;;;;;;;31.30;1.00;;;;;;5024379;28;19944;-66
2022/08/11 16:26:51;;;;;;;;;;;31.20;1.00;;;;;;5024483;28;19932;-69
2022/08/11 16:29:18;;;;;;;;;;;31.20;1.00;;;;;;5018509;28;19980;-66
2022/08/11 16:32:15;;;;;;;;;;;31.10;1.00;;;;;;5014983;28;20031;-66
2022/08/11 16:40:03;;;;;;;;;;;31.10;1.00;;;;;;5017861;28;19934;-67
2022/08/11 16:48:01;;;;;;;;;;;31.10;1.00;;;;;;5025458;28;19933;-67
2022/08/11 16:50:29;;;;;;;;;;;31.00;1.00;;;;;;5023781;28;19959;-67
2022/08/11 16:52:55;;;;;;;;;;;30.90;1.00;;;;;;5030771;28;19928;-67
2022/08/11 16:55:22;;;;;;;;;;;31.00;1.00;;;;;;5026532;28;20511;-66
2022/08/11 17:00:36;;;;;;;;;;;30.80;1.00;;;;;;5022855;28;19975;-67
2022/08/11 17:14:16;;;;;;;;;;;30.60;1.00;;;;;;5025143;28;20470;-67
2022/08/11 17:16:44;;;;;;;;;;;30.60;1.00;;;;;;5029129;28;20033;-66
2022/08/11 17:19:12;;;;;;;;;;;30.60;1.00;;;;;;5025330;28;19933;-66
2022/08/11 17:23:45;;;;;;;;;;;30.50;1.00;;;;;;5021663;28;20439;-66
2022/08/11 17:24:27;;;;;;;;;;;30.50;1.00;;;;;;5023447;28;19933;-67
2022/08/11 17:26:55;;;;;;;;;;;30.40;1.00;;;;;;5029196;28;19932;-66
2022/08/11 17:29:27;;;;;;;;;;;30.40;1.30;;;;;;5025503;28;19925;-67
2022/08/11 17:37:24;;;;;;;;;;;30.30;1.30;;;;;;5022557;28;20020;-66
2022/08/11 17:39:53;;;;;;;;;;;30.30;1.80;;;;;;5021803;28;19932;-67
2022/08/11 17:50:36;;;;;;;;;;;29.90;2.50;;;;;;5022599;28;19940;-67
2022/08/11 18:01:18;;;;;;;;;;;29.70;3.20;;;;;;4996712;28;19984;-67
2022/08/11 18:03:45;;;;;;;;;;;29.70;3.40;;;;;;5025553;28;20392;-67
2022/08/11 18:06:12;;;;;;;;;;;29.60;3.50;;;;;;5021527;28;20398;-68
